METAR Data
IDs: Format: Raw Decoded Include TAF

Data at: 2124 UTC 06 Dec 2019

KCKI 062115Z AUTO 00000KT 10SM -RA OVC090 13/08 A3017 RMK AO2
KCKI 062055Z AUTO 00000KT 10SM OVC090 13/08 A3016 RMK AO2
KCKI 062035Z AUTO 00000KT 10SM DZ SCT048 BKN075 OVC085 13/08 A3017 RMK AO2
KCKI 062015Z AUTO 30006KT 10SM -RA BKN050 OVC060 15/08 A3020 RMK AO2
KCKI 061955Z AUTO 32004KT 10SM RA BKN050 BKN060 BKN120 16/07 A3018 RMK AO2
KCKI 061935Z AUTO 31004KT 10SM BKN050 BKN060 17/07 A3017 RMK AO2
KCKI 061915Z AUTO 31004KT 10SM OVC050 18/07 A3017 RMK AO2
KCKI 061855Z AUTO 25003KT 10SM BKN050 BKN060 OVC120 18/07 A3017 RMK AO2
KCKI 061835Z AUTO 23003KT 10SM SCT050 BKN120 19/07 A3018 RMK AO2
KCKI 061815Z AUTO 00000KT 10SM SCT050 SCT055 BKN120 19/06 A3017 RMK AO2
KCKI 061755Z AUTO 16003KT 10SM SCT050 SCT055 BKN120 18/06 A3018 RMK AO2
KCKI 061735Z AUTO 18004KT 10SM SCT050 SCT120 18/06 A3018 RMK AO2
KCKI 061715Z AUTO 13004KT 10SM CLR 18/05 A3019 RMK AO2
KCKI 061655Z AUTO 14004KT 10SM SCT120 17/05 A3021 RMK AO2
KCKI 061635Z AUTO 14004KT 10SM CLR 17/04 A3022 RMK AO2
KCKI 061615Z AUTO 12005KT 10SM CLR 17/03 A3023 RMK AO2
KCKI 061555Z AUTO 11005KT 10SM CLR 16/03 A3024 RMK AO2
KCKI 061535Z AUTO 11004KT 10SM SCT050 15/05 A3024 RMK AO2
KCKI 061515Z AUTO 11003KT 10SM BKN050 BKN100 12/05 A3025 RMK AO2
KCKI 061455Z AUTO 00000KT 10SM SCT110 10/07 A3026 RMK AO2
KCKI 061435Z AUTO 00000KT 10SM SCT120 07/07 A3026 RMK AO2
KCKI 061415Z AUTO 00000KT 10SM CLR 05/05 A3025 RMK AO2
KCKI 061355Z AUTO 00000KT 10SM CLR 04/03 A3025 RMK AO2
KCKI 061335Z AUTO 00000KT 10SM CLR 03/02 A3026 RMK AO2
KCKI 061315Z AUTO 00000KT 10SM CLR 01/01 A3026 RMK AO2
KCKI 061255Z AUTO 00000KT 10SM CLR 00/00 A3027 RMK AO2
KCKI 061235Z AUTO 00000KT 10SM CLR 00/00 A3026 RMK AO2
KCKI 061215Z AUTO 00000KT 10SM CLR 00/00 A3026 RMK AO2
KCKI 061155Z AUTO 00000KT 10SM CLR M01/M01 A3027 RMK AO2
KCKI 061135Z AUTO 00000KT 10SM CLR M01/M02 A3026 RMK AO2
KCKI 061115Z AUTO 00000KT 10SM CLR M01/M02 A3025 RMK AO2
KCKI 061055Z AUTO 00000KT 10SM CLR M01/M01 A3025 RMK AO2
KCKI 061035Z AUTO 00000KT 10SM CLR 00/M01 A3024 RMK AO2
KCKI 061015Z AUTO 00000KT 10SM CLR 00/M01 A3023 RMK AO2
KCKI 060955Z AUTO 00000KT 10SM CLR M01/M01 A3023 RMK AO2
KCKI 060935Z AUTO 00000KT 10SM CLR M01/M01 A3024 RMK AO2
KCKI 060915Z AUTO 00000KT 10SM CLR M01/M01 A3024 RMK AO2
KCKI 060855Z AUTO 00000KT 10SM CLR M01/M01 A3023 RMK AO2
KCKI 060835Z AUTO 00000KT 10SM CLR 00/M01 A3023 RMK AO2
KCKI 060815Z AUTO 00000KT 10SM CLR 00/M01 A3023 RMK AO2
KCKI 060755Z AUTO 00000KT 10SM CLR 00/00 A3023 RMK AO2
KCKI 060735Z AUTO 00000KT 10SM CLR 00/00 A3022 RMK AO2
KCKI 060715Z AUTO 00000KT 10SM CLR 00/00 A3022 RMK AO2
KCKI 060655Z AUTO 00000KT 10SM CLR 00/00 A3023 RMK AO2
KCKI 060635Z AUTO 00000KT 10SM CLR 00/00 A3023 RMK AO2
KCKI 060615Z AUTO 00000KT 10SM CLR 00/00 A3023 RMK AO2
KCKI 060555Z AUTO 00000KT 10SM CLR 00/00 A3023 RMK AO2
KCKI 060535Z AUTO 00000KT 10SM CLR 00/00 A3024 RMK AO2
KCKI 060515Z AUTO 00000KT 10SM CLR 00/00 A3024 RMK AO2
KCKI 060455Z AUTO 00000KT 10SM CLR 00/00 A3024 RMK AO2
KCKI 060435Z AUTO 00000KT 10SM CLR 00/00 A3023 RMK AO2
KCKI 060415Z AUTO 00000KT 10SM CLR 01/00 A3023 RMK AO2
KCKI 060355Z AUTO 00000KT 10SM CLR 01/00 A3022 RMK AO2
KCKI 060335Z AUTO 00000KT 10SM CLR 01/01 A3022 RMK AO2
KCKI 060315Z AUTO 00000KT 10SM CLR 02/01 A3022 RMK AO2
KCKI 060255Z AUTO 00000KT 10SM CLR 02/01 A3022 RMK AO2
KCKI 060235Z AUTO 00000KT 10SM CLR 02/01 A3021 RMK AO2
KCKI 060215Z AUTO 00000KT 10SM CLR 02/01 A3021 RMK AO2
KCKI 060155Z AUTO 00000KT 10SM CLR 02/01 A3021 RMK AO2
KCKI 060135Z AUTO 00000KT 10SM CLR 02/01 A3020 RMK AO2
KCKI 060115Z AUTO 00000KT 10SM CLR 02/01 A3019 RMK AO2
KCKI 060055Z AUTO 00000KT 10SM CLR 04/01 A3019 RMK AO2
KCKI 060035Z AUTO 00000KT 10SM CLR 03/02 A3019 RMK AO2
KCKI 060015Z AUTO 00000KT 10SM CLR 05/01 A3018 RMK AO2
KCKI 052355Z AUTO 00000KT 10SM CLR 05/02 A3017 RMK AO2
KCKI 052335Z AUTO 00000KT 10SM CLR 06/02 A3017 RMK AO2
KCKI 052315Z AUTO 00000KT 10SM CLR 07/02 A3015 RMK AO2
KCKI 052255Z AUTO 00000KT 10SM CLR 07/02 A3014 RMK AO2
KCKI 052235Z AUTO 00000KT 10SM CLR 09/03 A3013 RMK AO2
KCKI 052215Z AUTO 00000KT 10SM CLR 11/02 A3012 RMK AO2
KCKI 052155Z AUTO 00000KT 10SM CLR 13/01 A3012 RMK AO2
KCKI 052135Z AUTO 00000KT 10SM CLR 15/00 A3011 RMK AO2
KCKI 052115Z AUTO 00000KT 10SM CLR 16/M03 A3010 RMK AO2
KCKI 052055Z AUTO 26004KT 10SM CLR 17/M05 A3009 RMK AO2
KCKI 052035Z AUTO 28003KT 10SM CLR 17/M05 A3009 RMK AO2
KCKI 052015Z AUTO 00000KT 10SM CLR 17/M07 A3009 RMK AO2
KCKI 051955Z AUTO 24004KT 10SM CLR 17/M07 A3008 RMK AO2
KCKI 051935Z AUTO 32005KT 10SM CLR 17/M07 A3008 RMK AO2
KCKI 051915Z AUTO 30008KT 270V330 10SM CLR 17/M07 A3008 RMK AO2
KCKI 051855Z AUTO 00000KT 10SM CLR 17/M06 A3008 RMK AO2
KCKI 051835Z AUTO 00000KT 10SM CLR 16/M06 A3008 RMK AO2
KCKI 051815Z AUTO 27006KT 10SM CLR 17/M04 A3008 RMK AO2
KCKI 051755Z AUTO 27003KT 10SM CLR 16/M05 A3009 RMK AO2
KCKI 051735Z AUTO 00000KT 10SM CLR 16/M04 A3009 RMK AO2
KCKI 051715Z AUTO 00000KT 10SM CLR 15/M03 A3010 RMK AO2
KCKI 051655Z AUTO 30005KT 10SM CLR 15/M03 A3010 RMK AO2
KCKI 051635Z AUTO 28003KT 10SM CLR 15/M01 A3011 RMK AO2
KCKI 051615Z AUTO 00000KT 10SM CLR 14/M01 A3011 RMK AO2
KCKI 051555Z AUTO 00000KT 10SM CLR 13/M01 A3011 RMK AO2
KCKI 051535Z AUTO 00000KT 10SM CLR 12/M01 A3011 RMK AO2
KCKI 051515Z AUTO 00000KT 10SM CLR 11/00 A3011 RMK AO2
KCKI 051455Z AUTO 00000KT 10SM CLR 11/00 A3010 RMK AO2
KCKI 051435Z AUTO 00000KT 10SM CLR 09/00 A3009 RMK AO2
KCKI 051415Z AUTO 00000KT 10SM CLR 07/02 A3008 RMK AO2
KCKI 051355Z AUTO 00000KT 10SM CLR 07/00 A3006 RMK AO2
KCKI 051335Z AUTO 00000KT 10SM CLR 05/02 A3006 RMK AO2 LTG DSNT NE
KCKI 051315Z AUTO 00000KT 10SM CLR 03/02 A3005 RMK AO2
KCKI 051255Z AUTO 00000KT 10SM CLR 01/01 A3004 RMK AO2
KCKI 051235Z AUTO 00000KT 10SM CLR 02/01 A3003 RMK AO2
KCKI 051215Z AUTO 00000KT 10SM CLR 01/00 A3002 RMK AO2
KCKI 051155Z AUTO 00000KT 10SM CLR 00/00 A3001 RMK AO2
KCKI 051135Z AUTO 00000KT 10SM CLR 02/00 A3000 RMK AO2
KCKI 051115Z AUTO 00000KT 10SM CLR 01/00 A2999 RMK AO2
KCKI 051055Z AUTO 00000KT 10SM CLR 00/00 A2998 RMK AO2
KCKI 051035Z AUTO 00000KT 10SM CLR 00/00 A2996 RMK AO2
KCKI 051015Z AUTO 00000KT 10SM CLR 00/00 A2995 RMK AO2
KCKI 050955Z AUTO 00000KT 10SM CLR 01/00 A2994 RMK AO2
KCKI 050935Z AUTO 00000KT 10SM CLR 00/00 A2993 RMK AO2